createdAt,value
2019-05-05T00:00:55.027Z,100556.23
2019-05-05T00:03:24.955Z,100554.64
2019-05-05T00:05:51.183Z,100561.34
2019-05-05T00:08:15.988Z,100560.32
2019-05-05T00:10:45.260Z,100557.77
2019-05-05T00:13:26.621Z,100559.36
2019-05-05T00:16:08.955Z,100565.59
2019-05-05T00:18:34.661Z,100566.02
2019-05-05T00:20:59.190Z,100557.19
2019-05-05T00:23:25.103Z,100563.45
2019-05-05T00:25:49.875Z,100565.77
2019-05-05T00:28:14.425Z,100561.94
2019-05-05T00:30:38.891Z,100562.76
2019-05-05T00:33:05.406Z,100562.76
2019-05-05T00:35:29.644Z,100566.44
2019-05-05T00:37:54.466Z,100565.10
2019-05-05T00:40:19.063Z,100575.70
2019-05-05T00:42:45.538Z,100572.16
2019-05-05T00:45:10.375Z,100575.35
2019-05-05T00:47:54.635Z,100576.31
2019-05-05T00:50:20.615Z,100581.50
2019-05-05T00:52:45.084Z,100577.35
2019-05-05T00:55:10.173Z,100573.00
2019-05-05T00:57:34.880Z,100580.50
2019-05-05T00:59:59.297Z,100581.27
2019-05-05T01:02:34.464Z,100580.91
2019-05-05T01:05:04.546Z,100585.20
2019-05-05T01:07:29.219Z,100584.82
2019-05-05T01:09:54.292Z,100586.00
2019-05-05T01:12:19.795Z,100588.38
2019-05-05T01:14:44.831Z,100588.95
2019-05-05T01:17:09.417Z,100593.66
2019-05-05T01:19:34.955Z,100591.72
2019-05-05T01:21:59.734Z,100595.83
2019-05-05T01:24:24.874Z,100599.81
2019-05-05T01:26:49.481Z,100596.47
2019-05-05T01:29:14.853Z,100599.80
2019-05-05T01:31:39.384Z,100602.95
2019-05-05T01:34:05.630Z,100608.44
2019-05-05T01:36:30.090Z,100601.38
2019-05-05T01:38:59.231Z,100603.94
2019-05-05T01:41:31.404Z,100610.41
2019-05-05T01:43:55.996Z,100606.87
2019-05-05T01:46:20.460Z,100607.67
2019-05-05T01:48:44.991Z,100603.36
2019-05-05T01:51:09.514Z,100614.36
2019-05-05T01:53:35.013Z,100611.98
2019-05-05T01:56:00.313Z,100606.87
2019-05-05T01:58:25.018Z,100613.75
2019-05-05T02:00:49.634Z,100614.92
2019-05-05T02:03:14.796Z,100615.13
2019-05-05T02:05:39.398Z,100617.67
2019-05-05T02:08:04.975Z,100625.92
2019-05-05T02:10:29.630Z,100627.09
2019-05-05T02:12:55.085Z,100624.94
2019-05-05T02:15:19.990Z,100623.37
2019-05-05T02:17:44.762Z,100629.22
2019-05-05T02:20:11.139Z,100631.58
2019-05-05T02:22:35.783Z,100637.84
2019-05-05T02:25:00.260Z,100637.45
2019-05-05T02:27:25.337Z,100635.10
2019-05-05T02:30:06.308Z,100642.73
2019-05-05T02:32:50.270Z,100640.21
2019-05-05T02:35:16.870Z,100645.23
2019-05-05T02:37:41.527Z,100639.41
2019-05-05T02:40:08.680Z,100640.19
2019-05-05T02:42:35.437Z,100651.10
2019-05-05T02:45:05.566Z,100644.48
2019-05-05T02:47:55.434Z,100649.52
2019-05-05T02:50:20.588Z,100653.29
2019-05-05T02:52:47.090Z,100656.24
2019-05-05T02:55:14.677Z,100651.52
2019-05-05T02:57:39.566Z,100655.27
2019-05-05T03:00:15.455Z,100658.17
2019-05-05T03:02:40.223Z,100664.41
2019-05-05T03:05:07.791Z,100664.81
2019-05-05T03:07:37.283Z,100664.36
2019-05-05T03:10:03.715Z,100628.20
2019-05-05T03:12:34.567Z,100673.45
2019-05-05T03:14:58.785Z,100680.73
2019-05-05T03:17:23.675Z,100677.37
2019-05-05T03:19:49.180Z,100674.00
2019-05-05T03:22:14.337Z,100681.84
2019-05-05T03:24:39.335Z,100683.12
2019-05-05T03:27:04.139Z,100688.61
2019-05-05T03:29:29.452Z,100690.84
2019-05-05T03:31:56.375Z,100687.66
2019-05-05T03:34:23.840Z,100691.17
2019-05-05T03:36:48.722Z,100691.35
2019-05-05T03:39:15.165Z,100689.73
2019-05-05T03:41:44.121Z,100690.12
2019-05-05T03:44:10.765Z,100696.81
2019-05-05T03:46:36.440Z,100698.95
2019-05-05T03:49:01.036Z,100704.96
2019-05-05T03:51:26.102Z,100705.36
2019-05-05T03:53:50.717Z,100706.98
2019-05-05T03:56:15.302Z,100698.82
2019-05-05T03:58:39.935Z,100702.31
2019-05-05T04:01:19.542Z,100710.41
2019-05-05T04:03:44.032Z,100710.23
2019-05-05T04:06:14.975Z,100711.20
2019-05-05T04:08:39.613Z,100712.93
2019-05-05T04:11:04.370Z,100720.52
2019-05-05T04:13:29.398Z,100729.55
2019-05-05T04:16:13.587Z,100733.86
2019-05-05T04:18:43.577Z,100732.98
2019-05-05T04:21:08.119Z,100734.70
2019-05-05T04:23:33.511Z,100745.31
2019-05-05T04:25:58.034Z,100739.05
2019-05-05T04:28:40.368Z,100745.58
2019-05-05T04:31:04.969Z,100740.98
2019-05-05T04:33:29.556Z,100751.81
2019-05-05T04:35:54.599Z,100764.04
2019-05-05T04:38:19.305Z,100766.59
2019-05-05T04:40:43.769Z,100770.75
2019-05-05T04:43:08.327Z,100764.05
2019-05-05T04:45:34.695Z,100765.83
2019-05-05T04:48:04.359Z,100763.08
2019-05-05T04:50:34.541Z,100767.31
2019-05-05T04:53:00.775Z,100770.80
2019-05-05T04:55:25.309Z,100772.89
2019-05-05T04:57:49.819Z,100779.70
2019-05-05T05:00:14.446Z,100783.41
2019-05-05T05:02:56.678Z,100786.56
2019-05-05T05:05:39.334Z,100781.18
2019-05-05T05:08:03.907Z,100784.51
2019-05-05T05:10:28.448Z,100788.34
2019-05-05T05:12:54.017Z,100797.92
2019-05-05T05:15:18.698Z,100797.79
2019-05-05T05:17:44.818Z,100800.09
2019-05-05T05:22:33.448Z,100794.57
2019-05-05T05:24:58.034Z,100796.42
2019-05-05T05:27:24.277Z,100800.31
2019-05-05T05:29:48.727Z,100801.53
2019-05-05T05:32:13.211Z,100806.39
2019-05-05T05:34:37.666Z,100811.47
2019-05-05T05:37:04.060Z,100812.70
2019-05-05T05:39:44.956Z,100821.13
2019-05-05T05:42:09.507Z,100819.47
2019-05-05T05:44:44.771Z,100825.41
2019-05-05T05:47:16.684Z,100823.75
2019-05-05T05:49:45.511Z,100807.76
2019-05-05T05:52:15.781Z,100835.64
2019-05-05T05:54:36.211Z,100827.69
2019-05-05T05:57:00.725Z,100830.02
2019-05-05T05:59:25.260Z,100829.12
2019-05-05T06:01:49.733Z,100828.19
2019-05-05T06:04:14.559Z,100835.72
2019-05-05T06:06:39.110Z,100837.23
2019-05-05T06:09:04.339Z,100842.36
2019-05-05T06:11:28.979Z,100835.52
2019-05-05T06:13:54.478Z,100840.37
2019-05-05T06:16:18.923Z,100841.89
2019-05-05T06:18:43.760Z,100843.16
2019-05-05T06:21:08.243Z,100845.97
2019-05-05T06:23:34.415Z,100843.85
2019-05-05T06:25:59.086Z,100847.84
2019-05-05T06:28:23.814Z,100847.45
2019-05-05T06:30:48.247Z,100849.11
2019-05-05T06:33:13.683Z,100848.22
2019-05-05T06:35:38.319Z,100846.42
2019-05-05T06:38:04.658Z,100844.83
2019-05-05T06:40:30.728Z,100846.41
2019-05-05T06:43:05.860Z,100850.51
2019-05-05T06:45:34.985Z,100861.45
2019-05-05T06:47:59.429Z,100851.45
2019-05-05T06:50:24.324Z,100861.47
2019-05-05T06:52:48.827Z,100862.22
2019-05-05T06:55:14.163Z,100863.20
2019-05-05T06:57:38.618Z,100862.20
2019-05-05T07:00:03.741Z,100866.77
2019-05-05T07:02:28.215Z,100867.14
2019-05-05T07:04:54.648Z,100874.59
2019-05-05T07:07:18.931Z,100873.40
2019-05-05T07:09:44.297Z,100871.06
2019-05-05T07:12:08.909Z,100875.91
2019-05-05T07:14:34.093Z,100877.70
2019-05-05T07:16:58.600Z,100868.41
2019-05-05T07:19:23.913Z,100867.00
2019-05-05T07:21:48.626Z,100875.34
2019-05-05T07:24:14.516Z,100870.83
2019-05-05T07:26:39.358Z,100875.42
2019-05-05T07:29:04.599Z,100874.89
2019-05-05T07:31:29.243Z,100871.55
2019-05-05T07:33:54.423Z,100866.69
2019-05-05T07:36:38.943Z,100875.73
2019-05-05T07:39:05.545Z,100871.80
2019-05-05T07:41:30.549Z,100877.34
2019-05-05T07:43:55.044Z,100880.11
2019-05-05T07:46:19.498Z,100873.06
2019-05-05T07:48:44.345Z,100878.69
2019-05-05T07:51:08.857Z,100874.92
2019-05-05T07:53:33.597Z,100880.87
2019-05-05T07:55:58.167Z,100885.42
2019-05-05T07:58:24.272Z,100880.76
2019-05-05T08:00:48.888Z,100839.88
2019-05-05T08:03:14.383Z,100883.67
2019-05-05T08:05:38.933Z,100880.95
2019-05-05T08:08:04.627Z,100871.52
2019-05-05T08:10:29.211Z,100875.00
2019-05-05T08:12:54.307Z,100872.31
2019-05-05T08:15:20.939Z,100878.73
2019-05-05T08:17:47.050Z,100883.41
2019-05-05T08:20:19.240Z,100880.14
2019-05-05T08:22:44.333Z,100878.20
2019-05-05T08:25:10.597Z,100871.57
2019-05-05T08:27:39.992Z,100876.19
2019-05-05T08:30:17.537Z,100876.74
2019-05-05T08:32:43.715Z,100883.27
2019-05-05T08:35:08.694Z,100883.89
2019-05-05T08:37:34.335Z,100880.52
2019-05-05T08:39:58.904Z,100871.19
2019-05-05T08:42:24.674Z,100871.48
2019-05-05T08:44:49.249Z,100865.34
2019-05-05T08:47:13.963Z,100866.59
2019-05-05T08:49:38.509Z,100875.06
2019-05-05T08:52:04.002Z,100873.67
2019-05-05T08:54:28.703Z,100875.16
2019-05-05T08:56:54.924Z,100865.27
2019-05-05T08:59:19.670Z,100864.23
2019-05-05T09:01:44.880Z,100872.43
2019-05-05T09:04:09.600Z,100882.71
2019-05-05T09:06:37.708Z,100878.03
2019-05-05T09:09:01.294Z,100885.22
2019-05-05T09:11:25.777Z,100881.56
2019-05-05T09:13:50.228Z,100884.27
2019-05-05T09:16:14.792Z,100884.63
2019-05-05T09:18:40.912Z,100885.89
2019-05-05T09:21:05.520Z,100885.53
2019-05-05T09:23:31.949Z,100888.02
2019-05-05T09:26:10.079Z,100888.58
2019-05-05T09:28:53.843Z,100890.98
2019-05-05T09:31:18.504Z,100895.07
2019-05-05T09:33:44.221Z,100894.59
2019-05-05T09:36:08.741Z,100894.42
2019-05-05T09:38:34.731Z,100894.75
2019-05-05T09:40:59.354Z,100893.45
2019-05-05T09:43:24.208Z,100894.77
2019-05-05T09:45:48.719Z,100886.36
2019-05-05T09:48:13.913Z,100893.97
2019-05-05T09:50:38.678Z,100886.00
2019-05-05T09:53:04.199Z,100888.70
2019-05-05T09:55:28.803Z,100866.73
2019-05-05T09:57:54.012Z,100880.00
2019-05-05T10:00:18.591Z,100886.20
2019-05-05T10:02:44.190Z,100890.37
2019-05-05T10:05:09.632Z,100881.39
2019-05-05T10:07:34.655Z,100886.19
2019-05-05T10:09:59.085Z,100900.77
2019-05-05T10:12:23.553Z,100894.62
2019-05-05T10:14:48.035Z,100894.05
2019-05-05T10:17:14.111Z,100893.50
2019-05-05T10:19:38.732Z,100896.35
2019-05-05T10:22:04.021Z,100899.84
2019-05-05T10:24:33.898Z,100901.89
2019-05-05T10:26:58.892Z,100908.02
2019-05-05T10:29:23.503Z,100906.77
2019-05-05T10:31:47.981Z,100905.55
2019-05-05T10:34:14.155Z,100901.55
2019-05-05T10:36:38.622Z,100897.57
2019-05-05T10:39:04.741Z,100891.24
2019-05-05T10:41:29.287Z,100899.09
2019-05-05T10:43:54.268Z,100894.41
2019-05-05T10:46:18.784Z,100898.74
2019-05-05T10:48:44.553Z,100907.48
2019-05-05T10:51:09.154Z,100910.22
2019-05-05T10:53:33.698Z,100907.20
2019-05-05T10:55:58.245Z,100910.33
2019-05-05T10:58:24.399Z,100907.27
2019-05-05T11:00:51.888Z,100909.55
2019-05-05T11:03:16.507Z,100909.69
2019-05-05T11:05:41.351Z,100904.97
2019-05-05T11:08:07.397Z,100906.25
2019-05-05T11:10:33.991Z,100909.91
2019-05-05T11:12:58.479Z,100908.17
2019-05-05T11:15:24.679Z,100913.47
2019-05-05T11:17:49.396Z,100915.63
2019-05-05T11:20:14.581Z,100905.91
2019-05-05T11:22:39.008Z,100903.45
2019-05-05T11:25:05.138Z,100901.49
2019-05-05T11:27:29.846Z,100901.92
2019-05-05T11:30:14.335Z,100905.73
2019-05-05T11:32:56.770Z,100902.41
2019-05-05T11:35:24.436Z,100902.24
2019-05-05T11:37:49.078Z,100903.12
2019-05-05T11:40:13.900Z,100899.74
2019-05-05T11:42:38.393Z,100893.30
2019-05-05T11:45:04.258Z,100894.66
2019-05-05T11:47:28.921Z,100902.16
2019-05-05T11:49:56.179Z,100908.69
2019-05-05T11:52:19.627Z,100904.67
2019-05-05T11:54:44.090Z,100911.89
2019-05-05T11:57:08.564Z,100902.95
2019-05-05T11:59:33.028Z,100903.34
2019-05-05T12:01:57.635Z,100902.12
2019-05-05T12:04:23.989Z,100902.27
2019-05-05T12:06:48.337Z,100908.42
2019-05-05T12:09:14.765Z,100901.29
2019-05-05T12:11:39.254Z,100895.33
2019-05-05T12:14:05.502Z,100897.09
2019-05-05T12:16:30.922Z,100891.14
2019-05-05T12:18:55.466Z,100900.63
2019-05-05T12:21:19.949Z,100898.48
2019-05-05T12:23:44.662Z,100899.13
2019-05-05T12:26:24.362Z,100889.84
2019-05-05T12:28:50.538Z,100902.83
2019-05-05T12:31:24.755Z,100896.69
2019-05-05T12:33:49.421Z,100882.88
2019-05-05T12:36:15.037Z,100891.34
2019-05-05T12:38:39.652Z,100888.29
2019-05-05T12:41:04.532Z,100889.97
2019-05-05T12:43:29.040Z,100887.98
2019-05-05T12:46:11.419Z,100891.33
2019-05-05T12:48:43.856Z,100892.55
2019-05-05T12:51:08.422Z,100881.81
2019-05-05T12:53:32.965Z,100876.73
2019-05-05T12:55:57.508Z,100885.60
2019-05-05T12:58:22.048Z,100880.13
2019-05-05T13:01:04.832Z,100878.13
2019-05-05T13:03:29.345Z,100870.30
2019-05-05T13:05:53.861Z,100874.82
2019-05-05T13:08:18.402Z,100870.23
2019-05-05T13:10:44.199Z,100870.46
2019-05-05T13:13:08.781Z,100871.66
2019-05-05T13:15:33.932Z,100871.95
2019-05-05T13:17:58.502Z,100864.31
2019-05-05T13:20:33.980Z,100860.84
2019-05-05T13:23:04.133Z,100853.26
2019-05-05T13:25:52.434Z,100857.21
2019-05-05T13:28:05.872Z,100859.77
2019-05-05T13:30:30.347Z,100854.66
2019-05-05T13:32:55.022Z,100849.02
2019-05-05T13:35:19.630Z,100856.48
2019-05-05T13:37:44.460Z,100863.95
2019-05-05T13:40:09.488Z,100861.97
2019-05-05T13:42:34.047Z,100826.17
2019-05-05T13:45:00.145Z,100854.72
2019-05-05T13:47:24.718Z,100854.76
2019-05-05T13:49:50.878Z,100859.17
2019-05-05T13:52:15.348Z,100855.18
2019-05-05T13:54:39.814Z,100846.77
2019-05-05T13:57:04.354Z,100845.86
2019-05-05T13:59:28.908Z,100835.47
2019-05-05T14:01:53.949Z,100847.17
2019-05-05T14:04:18.421Z,100840.59
2019-05-05T14:06:44.488Z,100841.40
2019-05-05T14:09:09.285Z,100838.52
2019-05-05T14:11:34.068Z,100841.53
2019-05-05T14:13:58.578Z,100839.63
2019-05-05T14:16:23.161Z,100848.31
2019-05-05T14:18:47.644Z,100840.42
2019-05-05T14:21:14.077Z,100847.05
2019-05-05T14:23:56.462Z,100840.99
2019-05-05T14:26:25.722Z,100841.20
2019-05-05T14:28:47.277Z,100850.02
2019-05-05T14:31:14.116Z,100848.72
2019-05-05T14:33:54.199Z,100855.58
2019-05-05T14:36:33.512Z,100855.28
2019-05-05T14:38:58.773Z,100856.91
2019-05-05T14:41:23.327Z,100856.92
2019-05-05T14:43:47.885Z,100858.73
2019-05-05T14:46:14.466Z,100864.97
2019-05-05T14:48:38.669Z,100859.12
2019-05-05T14:51:03.998Z,100812.00
2019-05-05T14:53:28.623Z,100851.86
2019-05-05T14:55:53.804Z,100852.38
2019-05-05T14:58:18.324Z,100848.25
2019-05-05T15:00:44.268Z,100851.78
2019-05-05T15:03:08.718Z,100859.70
2019-05-05T15:05:37.873Z,100864.39
2019-05-05T15:08:20.020Z,100861.08
2019-05-05T15:11:03.645Z,100867.27
2019-05-05T15:13:28.380Z,100857.64
2019-05-05T15:15:53.903Z,100859.47
2019-05-05T15:18:18.595Z,100864.81
2019-05-05T15:20:44.025Z,100858.26
2019-05-05T15:23:08.566Z,100854.61
2019-05-05T15:25:34.141Z,100857.69
2019-05-05T15:27:58.687Z,100860.37
2019-05-05T15:30:26.915Z,100854.75
2019-05-05T15:32:49.633Z,100852.20
2019-05-05T15:35:14.418Z,100855.34
2019-05-05T15:37:38.904Z,100858.92
2019-05-05T15:40:04.035Z,100857.73
2019-05-05T15:42:28.592Z,100855.30
2019-05-05T15:44:54.417Z,100852.91
2019-05-05T15:47:18.968Z,100855.64
2019-05-05T15:49:44.067Z,100867.42
2019-05-05T15:52:08.587Z,100873.15
2019-05-05T15:54:33.952Z,100860.25
2019-05-05T15:57:05.444Z,100863.73
2019-05-05T15:59:24.728Z,100871.03
2019-05-05T16:01:49.281Z,100864.89
2019-05-05T16:04:14.136Z,100869.08
2019-05-05T16:06:38.659Z,100868.96
2019-05-05T16:09:04.927Z,100867.89
2019-05-05T16:11:29.508Z,100869.42
2019-05-05T16:13:54.486Z,100874.71
2019-05-05T16:16:30.002Z,100872.69
2019-05-05T16:19:05.368Z,100874.23
2019-05-05T16:21:26.836Z,100871.49
2019-05-05T16:23:56.021Z,100842.16
2019-05-05T16:26:20.662Z,100867.45
2019-05-05T16:28:45.296Z,100867.41
2019-05-05T16:31:09.843Z,100868.65
2019-05-05T16:33:34.388Z,100875.34
2019-05-05T16:35:58.923Z,100876.39
2019-05-05T16:38:24.041Z,100869.85
2019-05-05T16:40:48.777Z,100831.80
2019-05-05T16:43:14.090Z,100861.39
2019-05-05T16:45:39.732Z,100867.50
2019-05-05T16:48:04.421Z,100861.84
2019-05-05T16:50:28.958Z,100862.45
2019-05-05T16:53:04.116Z,100865.73
2019-05-05T16:55:34.495Z,100873.17
2019-05-05T16:57:59.519Z,100869.69
2019-05-05T17:00:25.855Z,100868.58
2019-05-05T17:02:50.446Z,100872.34
2019-05-05T17:05:15.155Z,100873.77
2019-05-05T17:07:39.655Z,100872.30
2019-05-05T17:10:06.245Z,100875.65
2019-05-05T17:12:30.875Z,100877.22
2019-05-05T17:15:09.224Z,100883.52
2019-05-05T17:17:35.340Z,100885.72
2019-05-05T17:20:01.457Z,100840.77
2019-05-05T17:22:44.618Z,100889.16
2019-05-05T17:25:09.743Z,100888.39
2019-05-05T17:27:47.112Z,100880.53
2019-05-05T17:30:00.451Z,100882.95
2019-05-05T17:32:25.012Z,100883.17
2019-05-05T17:34:49.465Z,100878.84
2019-05-05T17:37:14.006Z,100878.67
2019-05-05T17:39:40.807Z,100878.44
2019-05-05T17:42:16.121Z,100878.55
2019-05-05T17:44:44.278Z,100881.16
2019-05-05T17:47:25.086Z,100883.78
2019-05-05T17:50:06.247Z,100881.20
2019-05-05T17:52:35.326Z,100883.31
2019-05-05T17:55:00.274Z,100879.61
2019-05-05T17:57:24.921Z,100884.76
2019-05-05T17:59:49.393Z,100885.16
2019-05-05T18:02:14.026Z,100886.98
2019-05-05T18:04:39.071Z,100885.38
2019-05-05T18:07:05.250Z,100882.20
2019-05-05T18:09:40.371Z,100887.67
2019-05-05T18:12:06.599Z,100895.90
2019-05-05T18:14:44.764Z,100894.81
2019-05-05T18:17:09.304Z,100890.47
2019-05-05T18:19:34.109Z,100896.56
2019-05-05T18:21:58.617Z,100894.25
2019-05-05T18:24:24.294Z,100896.55
2019-05-05T18:26:48.969Z,100902.55
2019-05-05T18:29:14.574Z,100904.34
2019-05-05T18:31:39.126Z,100906.02
2019-05-05T18:34:04.099Z,100907.13
2019-05-05T18:36:29.416Z,100913.50
2019-05-05T18:38:53.982Z,100917.05
2019-05-05T18:41:29.320Z,100912.83
2019-05-05T18:44:01.476Z,100916.03
2019-05-05T18:46:25.982Z,100921.07
2019-05-05T18:48:50.825Z,100922.98
2019-05-05T18:51:15.285Z,100919.84
2019-05-05T18:53:39.744Z,100926.42
2019-05-05T18:56:04.357Z,100928.19
2019-05-05T18:58:30.447Z,100929.44
2019-05-05T19:01:09.026Z,100933.19
2019-05-05T19:03:44.099Z,100932.03
2019-05-05T19:06:19.309Z,100939.33
2019-05-05T19:08:54.266Z,100947.48
2019-05-05T19:11:11.650Z,100940.54
2019-05-05T19:13:36.229Z,100947.30
2019-05-05T19:16:00.771Z,100945.48
2019-05-05T19:18:25.249Z,100943.87
2019-05-05T19:20:51.399Z,100957.21
2019-05-05T19:23:15.881Z,100950.09
2019-05-05T19:25:40.492Z,100951.69
2019-05-05T19:28:05.061Z,100947.59
2019-05-05T19:30:29.613Z,100960.30
2019-05-05T19:32:54.272Z,100963.05
2019-05-05T19:35:18.711Z,100963.02
2019-05-05T19:37:44.528Z,100962.95
2019-05-05T19:40:10.099Z,100971.16
2019-05-05T19:42:34.563Z,100973.69
2019-05-05T19:44:59.017Z,100973.30
2019-05-05T19:47:24.602Z,100973.77
2019-05-05T19:49:50.774Z,100971.97
2019-05-05T19:52:15.369Z,100967.78
2019-05-05T19:54:39.855Z,100969.14
2019-05-05T19:57:04.968Z,100971.89
2019-05-05T19:59:29.535Z,100969.73
2019-05-05T20:01:54.117Z,100973.11
2019-05-05T20:04:18.690Z,100976.67
2019-05-05T20:06:44.156Z,100974.46
2019-05-05T20:09:09.120Z,100969.86
2019-05-05T20:11:34.065Z,100977.22
2019-05-05T20:14:07.571Z,100976.98
2019-05-05T20:16:38.358Z,100983.05
2019-05-05T20:19:04.220Z,100988.80
2019-05-05T20:21:28.749Z,100988.68
2019-05-05T20:23:53.212Z,100989.46
2019-05-05T20:26:17.694Z,100991.97
2019-05-05T20:28:42.231Z,100996.82
2019-05-05T20:31:06.750Z,100991.88
2019-05-05T20:33:33.775Z,100993.62
2019-05-05T20:35:59.943Z,100999.16
2019-05-05T20:38:31.844Z,100999.95
2019-05-05T20:41:14.241Z,100959.09
2019-05-05T20:43:39.109Z,101008.33
2019-05-05T20:46:04.498Z,101008.69
2019-05-05T20:48:29.142Z,101013.31
2019-05-05T20:50:54.681Z,101007.77
2019-05-05T20:53:19.184Z,101007.85
2019-05-05T20:55:44.720Z,101008.80
2019-05-05T20:58:09.365Z,101006.47
2019-05-05T21:00:34.768Z,101002.31
2019-05-05T21:02:59.357Z,101001.61
2019-05-05T21:05:24.230Z,101002.67
2019-05-05T21:07:49.965Z,100995.86
2019-05-05T21:10:14.639Z,100995.77
2019-05-05T21:12:42.510Z,101006.28
2019-05-05T21:15:08.283Z,101006.45
2019-05-05T21:17:33.753Z,101009.87
2019-05-05T21:19:58.452Z,101002.95
2019-05-05T21:22:30.286Z,101001.73
2019-05-05T21:24:55.697Z,101002.77
2019-05-05T21:27:20.229Z,100998.84
2019-05-05T21:29:44.696Z,100996.23
2019-05-05T21:32:09.811Z,101003.84
2019-05-05T21:34:34.396Z,100999.92
2019-05-05T21:36:58.797Z,101004.92
2019-05-05T21:39:24.904Z,101007.97
2019-05-05T21:41:49.664Z,101004.67
2019-05-05T21:44:14.615Z,101009.12
2019-05-05T21:46:39.414Z,101007.73
2019-05-05T21:49:04.129Z,101006.84
2019-05-05T21:51:42.584Z,101008.58
2019-05-05T21:54:27.036Z,100971.67
2019-05-05T21:57:04.242Z,101019.97
2019-05-05T21:59:28.458Z,101018.27
2019-05-05T22:01:54.588Z,100979.18
2019-05-05T22:04:19.091Z,101018.50
2019-05-05T22:06:43.622Z,101023.01
2019-05-05T22:09:08.393Z,101024.28
2019-05-05T22:11:32.943Z,101016.14
2019-05-05T22:13:57.455Z,101014.34
2019-05-05T22:16:21.979Z,101016.25
2019-05-05T22:18:46.906Z,101015.73
2019-05-05T22:21:28.029Z,101007.64
2019-05-05T22:24:12.962Z,101013.33
2019-05-05T22:26:36.499Z,101010.94
2019-05-05T22:29:00.955Z,101007.91
2019-05-05T22:31:25.416Z,101000.23
2019-05-05T22:33:49.879Z,101003.56
2019-05-05T22:36:14.337Z,101007.73
2019-05-05T22:38:38.801Z,101005.70
2019-05-05T22:41:03.336Z,100998.91
2019-05-05T22:43:27.862Z,101003.40
2019-05-05T22:45:54.142Z,101002.48
2019-05-05T22:48:18.569Z,101001.23
2019-05-05T22:50:43.642Z,100998.70
2019-05-05T22:53:08.567Z,101008.13
2019-05-05T22:55:34.361Z,100998.27
2019-05-05T22:57:58.999Z,101003.20
2019-05-05T23:00:29.180Z,101005.14
2019-05-05T23:03:09.658Z,101007.97
2019-05-05T23:05:44.615Z,101007.77
2019-05-05T23:08:09.217Z,101007.01
2019-05-05T23:10:33.681Z,101002.13
2019-05-05T23:12:58.139Z,100997.44
2019-05-05T23:15:25.326Z,101001.96
2019-05-05T23:18:06.115Z,100995.50
2019-05-05T23:21:03.787Z,100997.26
2019-05-05T23:23:29.882Z,100993.53
2019-05-05T23:25:56.054Z,100988.84
2019-05-05T23:28:20.516Z,100993.16
2019-05-05T23:30:45.049Z,100988.85
2019-05-05T23:33:09.877Z,100985.02
2019-05-05T23:35:34.525Z,100984.91
2019-05-05T23:37:58.971Z,100986.70
2019-05-05T23:40:27.963Z,100990.92
2019-05-05T23:42:54.121Z,100995.41
2019-05-05T23:45:19.126Z,100962.16
2019-05-05T23:47:44.798Z,100985.09
2019-05-05T23:50:09.362Z,100987.75
2019-05-05T23:52:34.974Z,100989.64
2019-05-05T23:54:59.655Z,100993.75
2019-05-05T23:57:24.601Z,100987.38
2019-05-05T23:59:49.153Z,100987.13
